sensor_id;sensor_type;location;lat;lon;timestamp;P1;durP1;ratioP1;P2;durP2;ratioP2
75297;SDS011;63896;45.990;18.688;2023-07-13T00:02:44;18.47;;;4.47;;
75297;SDS011;63896;45.990;18.688;2023-07-13T00:05:52;15.52;;;3.90;;
75297;SDS011;63896;45.990;18.688;2023-07-13T00:09:00;9.15;;;3.58;;
75297;SDS011;63896;45.990;18.688;2023-07-13T00:12:03;15.57;;;3.97;;
75297;SDS011;63896;45.990;18.688;2023-07-13T00:15:25;14.45;;;4.28;;
75297;SDS011;63896;45.990;18.688;2023-07-13T00:18:29;11.13;;;3.80;;
75297;SDS011;63896;45.990;18.688;2023-07-13T00:21:32;13.93;;;4.55;;
75297;SDS011;63896;45.990;18.688;2023-07-13T00:24:36;15.68;;;3.50;;
75297;SDS011;63896;45.990;18.688;2023-07-13T00:27:44;12.20;;;3.90;;
75297;SDS011;63896;45.990;18.688;2023-07-13T00:30:46;15.07;;;4.05;;
75297;SDS011;63896;45.990;18.688;2023-07-13T00:33:49;10.07;;;4.10;;
75297;SDS011;63896;45.990;18.688;2023-07-13T00:36:52;10.70;;;4.22;;
75297;SDS011;63896;45.990;18.688;2023-07-13T00:39:55;14.20;;;3.88;;
75297;SDS011;63896;45.990;18.688;2023-07-13T00:42:59;17.00;;;4.10;;
75297;SDS011;63896;45.990;18.688;2023-07-13T00:46:09;9.57;;;3.75;;
75297;SDS011;63896;45.990;18.688;2023-07-13T00:49:17;15.30;;;4.20;;
75297;SDS011;63896;45.990;18.688;2023-07-13T00:52:23;12.02;;;4.13;;
75297;SDS011;63896;45.990;18.688;2023-07-13T00:55:26;15.88;;;4.28;;
75297;SDS011;63896;45.990;18.688;2023-07-13T00:58:29;16.10;;;4.13;;
75297;SDS011;63896;45.990;18.688;2023-07-13T01:01:35;18.65;;;4.03;;
75297;SDS011;63896;45.990;18.688;2023-07-13T01:04:39;15.77;;;4.50;;
75297;SDS011;63896;45.990;18.688;2023-07-13T01:07:43;11.80;;;3.80;;
75297;SDS011;63896;45.990;18.688;2023-07-13T01:10:50;13.05;;;4.50;;
75297;SDS011;63896;45.990;18.688;2023-07-13T01:13:57;13.35;;;4.50;;
75297;SDS011;63896;45.990;18.688;2023-07-13T01:17:00;16.20;;;4.82;;
75297;SDS011;63896;45.990;18.688;2023-07-13T01:20:03;19.03;;;4.93;;
75297;SDS011;63896;45.990;18.688;2023-07-13T01:23:11;13.60;;;4.60;;
75297;SDS011;63896;45.990;18.688;2023-07-13T01:26:15;14.30;;;4.40;;
75297;SDS011;63896;45.990;18.688;2023-07-13T01:29:18;13.10;;;4.22;;
75297;SDS011;63896;45.990;18.688;2023-07-13T01:32:22;14.63;;;4.57;;
75297;SDS011;63896;45.990;18.688;2023-07-13T01:35:29;8.83;;;3.70;;
75297;SDS011;63896;45.990;18.688;2023-07-13T01:38:33;9.25;;;4.32;;
75297;SDS011;63896;45.990;18.688;2023-07-13T01:41:37;13.50;;;4.43;;
75297;SDS011;63896;45.990;18.688;2023-07-13T01:44:40;11.98;;;4.30;;
75297;SDS011;63896;45.990;18.688;2023-07-13T01:47:43;13.15;;;4.95;;
75297;SDS011;63896;45.990;18.688;2023-07-13T01:50:47;15.30;;;4.67;;
75297;SDS011;63896;45.990;18.688;2023-07-13T01:53:50;12.48;;;4.68;;
75297;SDS011;63896;45.990;18.688;2023-07-13T01:56:53;15.82;;;4.68;;
75297;SDS011;63896;45.990;18.688;2023-07-13T01:59:56;10.50;;;4.43;;
75297;SDS011;63896;45.990;18.688;2023-07-13T02:02:59;10.27;;;4.32;;
75297;SDS011;63896;45.990;18.688;2023-07-13T02:06:02;19.60;;;4.87;;
75297;SDS011;63896;45.990;18.688;2023-07-13T02:09:05;9.90;;;4.70;;
75297;SDS011;63896;45.990;18.688;2023-07-13T02:12:08;14.00;;;4.75;;
75297;SDS011;63896;45.990;18.688;2023-07-13T02:15:11;10.27;;;4.57;;
75297;SDS011;63896;45.990;18.688;2023-07-13T02:18:14;14.80;;;4.72;;
75297;SDS011;63896;45.990;18.688;2023-07-13T02:21:20;16.80;;;6.10;;
75297;SDS011;63896;45.990;18.688;2023-07-13T02:24:23;17.08;;;6.18;;
75297;SDS011;63896;45.990;18.688;2023-07-13T02:31:44;11.73;;;5.65;;
75297;SDS011;63896;45.990;18.688;2023-07-13T02:34:46;15.82;;;5.50;;
75297;SDS011;63896;45.990;18.688;2023-07-13T02:37:49;13.13;;;5.77;;
75297;SDS011;63896;45.990;18.688;2023-07-13T02:40:52;18.98;;;5.90;;
75297;SDS011;63896;45.990;18.688;2023-07-13T02:43:57;16.73;;;5.90;;
75297;SDS011;63896;45.990;18.688;2023-07-13T02:47:06;12.45;;;5.30;;
75297;SDS011;63896;45.990;18.688;2023-07-13T02:50:09;15.40;;;5.78;;
75297;SDS011;63896;45.990;18.688;2023-07-13T02:53:12;13.20;;;6.27;;
75297;SDS011;63896;45.990;18.688;2023-07-13T02:56:15;16.23;;;6.13;;
75297;SDS011;63896;45.990;18.688;2023-07-13T02:59:19;14.40;;;6.25;;
75297;SDS011;63896;45.990;18.688;2023-07-13T03:02:22;19.58;;;6.30;;
75297;SDS011;63896;45.990;18.688;2023-07-13T03:05:25;19.75;;;6.20;;
75297;SDS011;63896;45.990;18.688;2023-07-13T03:08:28;15.90;;;5.67;;
75297;SDS011;63896;45.990;18.688;2023-07-13T03:11:31;12.48;;;6.28;;
75297;SDS011;63896;45.990;18.688;2023-07-13T03:15:00;19.40;;;7.03;;
75297;SDS011;63896;45.990;18.688;2023-07-13T03:18:03;21.25;;;7.05;;
75297;SDS011;63896;45.990;18.688;2023-07-13T03:21:07;21.73;;;6.53;;
75297;SDS011;63896;45.990;18.688;2023-07-13T03:24:10;15.77;;;6.67;;
75297;SDS011;63896;45.990;18.688;2023-07-13T03:27:14;16.40;;;7.03;;
75297;SDS011;63896;45.990;18.688;2023-07-13T03:30:18;16.42;;;6.28;;
75297;SDS011;63896;45.990;18.688;2023-07-13T03:33:22;18.73;;;6.45;;
75297;SDS011;63896;45.990;18.688;2023-07-13T03:36:26;23.45;;;6.47;;
75297;SDS011;63896;45.990;18.688;2023-07-13T03:39:35;13.77;;;6.20;;
75297;SDS011;63896;45.990;18.688;2023-07-13T03:42:38;16.20;;;6.03;;
75297;SDS011;63896;45.990;18.688;2023-07-13T03:45:42;25.48;;;7.15;;
75297;SDS011;63896;45.990;18.688;2023-07-13T03:48:45;16.30;;;6.28;;
75297;SDS011;63896;45.990;18.688;2023-07-13T03:51:49;14.63;;;6.30;;
75297;SDS011;63896;45.990;18.688;2023-07-13T03:54:55;18.87;;;6.57;;
75297;SDS011;63896;45.990;18.688;2023-07-13T04:01:39;14.18;;;7.05;;
75297;SDS011;63896;45.990;18.688;2023-07-13T04:04:42;14.82;;;6.22;;
75297;SDS011;63896;45.990;18.688;2023-07-13T04:07:45;13.10;;;6.35;;
75297;SDS011;63896;45.990;18.688;2023-07-13T04:10:47;13.53;;;5.97;;
75297;SDS011;63896;45.990;18.688;2023-07-13T04:13:51;21.73;;;6.43;;
75297;SDS011;63896;45.990;18.688;2023-07-13T04:16:54;17.02;;;6.13;;
75297;SDS011;63896;45.990;18.688;2023-07-13T04:19:57;17.17;;;6.68;;
75297;SDS011;63896;45.990;18.688;2023-07-13T04:23:00;21.88;;;6.15;;
75297;SDS011;63896;45.990;18.688;2023-07-13T04:26:03;12.53;;;4.37;;
75297;SDS011;63896;45.990;18.688;2023-07-13T04:29:06;19.85;;;4.50;;
75297;SDS011;63896;45.990;18.688;2023-07-13T04:32:10;15.95;;;4.03;;
75297;SDS011;63896;45.990;18.688;2023-07-13T04:35:13;20.73;;;2.60;;
75297;SDS011;63896;45.990;18.688;2023-07-13T04:38:19;12.48;;;1.70;;
75297;SDS011;63896;45.990;18.688;2023-07-13T04:41:21;5.87;;;1.83;;
75297;SDS011;63896;45.990;18.688;2023-07-13T04:44:24;7.85;;;1.50;;
75297;SDS011;63896;45.990;18.688;2023-07-13T04:47:29;7.85;;;1.50;;
75297;SDS011;63896;45.990;18.688;2023-07-13T04:50:35;4.75;;;1.40;;
75297;SDS011;63896;45.990;18.688;2023-07-13T04:53:39;4.90;;;1.20;;
75297;SDS011;63896;45.990;18.688;2023-07-13T04:56:42;6.60;;;1.40;;
75297;SDS011;63896;45.990;18.688;2023-07-13T04:59:45;5.47;;;1.30;;
75297;SDS011;63896;45.990;18.688;2023-07-13T05:02:47;4.40;;;1.00;;
75297;SDS011;63896;45.990;18.688;2023-07-13T05:05:54;5.63;;;0.90;;
75297;SDS011;63896;45.990;18.688;2023-07-13T05:09:00;7.65;;;1.05;;
75297;SDS011;63896;45.990;18.688;2023-07-13T05:12:03;5.40;;;0.90;;
75297;SDS011;63896;45.990;18.688;2023-07-13T05:15:06;3.85;;;0.70;;
75297;SDS011;63896;45.990;18.688;2023-07-13T05:18:10;6.45;;;0.80;;
75297;SDS011;63896;45.990;18.688;2023-07-13T05:21:13;4.78;;;0.80;;
75297;SDS011;63896;45.990;18.688;2023-07-13T05:24:17;4.88;;;0.73;;
75297;SDS011;63896;45.990;18.688;2023-07-13T05:27:27;6.53;;;0.90;;
75297;SDS011;63896;45.990;18.688;2023-07-13T05:30:30;2.28;;;0.63;;
75297;SDS011;63896;45.990;18.688;2023-07-13T05:33:33;6.45;;;0.63;;
75297;SDS011;63896;45.990;18.688;2023-07-13T05:36:36;6.35;;;0.85;;
75297;SDS011;63896;45.990;18.688;2023-07-13T05:39:39;3.10;;;0.60;;
75297;SDS011;63896;45.990;18.688;2023-07-13T05:42:42;6.27;;;0.90;;
75297;SDS011;63896;45.990;18.688;2023-07-13T05:45:45;4.50;;;0.93;;
75297;SDS011;63896;45.990;18.688;2023-07-13T05:48:48;3.58;;;1.10;;
75297;SDS011;63896;45.990;18.688;2023-07-13T05:51:51;3.92;;;0.88;;
75297;SDS011;63896;45.990;18.688;2023-07-13T05:54:54;3.90;;;1.00;;
75297;SDS011;63896;45.990;18.688;2023-07-13T05:57:57;3.03;;;0.80;;
75297;SDS011;63896;45.990;18.688;2023-07-13T06:01:05;5.13;;;1.20;;
75297;SDS011;63896;45.990;18.688;2023-07-13T06:04:11;7.40;;;1.00;;
75297;SDS011;63896;45.990;18.688;2023-07-13T06:07:14;3.08;;;0.90;;
75297;SDS011;63896;45.990;18.688;2023-07-13T06:10:17;3.25;;;0.93;;
75297;SDS011;63896;45.990;18.688;2023-07-13T06:13:20;4.13;;;0.77;;
75297;SDS011;63896;45.990;18.688;2023-07-13T06:16:23;2.45;;;0.60;;
75297;SDS011;63896;45.990;18.688;2023-07-13T06:19:26;2.38;;;0.85;;
75297;SDS011;63896;45.990;18.688;2023-07-13T06:22:30;4.68;;;1.00;;
75297;SDS011;63896;45.990;18.688;2023-07-13T06:25:33;2.60;;;0.80;;
75297;SDS011;63896;45.990;18.688;2023-07-13T06:28:36;5.00;;;1.00;;
75297;SDS011;63896;45.990;18.688;2023-07-13T06:31:40;4.45;;;0.90;;
75297;SDS011;63896;45.990;18.688;2023-07-13T06:34:43;3.83;;;1.00;;
75297;SDS011;63896;45.990;18.688;2023-07-13T06:37:46;1.90;;;0.85;;
75297;SDS011;63896;45.990;18.688;2023-07-13T06:40:49;1.73;;;0.90;;
75297;SDS011;63896;45.990;18.688;2023-07-13T06:43:52;1.40;;;0.90;;
75297;SDS011;63896;45.990;18.688;2023-07-13T06:46:55;3.08;;;0.60;;
75297;SDS011;63896;45.990;18.688;2023-07-13T06:49:58;7.43;;;1.10;;
75297;SDS011;63896;45.990;18.688;2023-07-13T06:53:01;2.35;;;0.90;;
75297;SDS011;63896;45.990;18.688;2023-07-13T06:56:04;4.15;;;0.90;;
75297;SDS011;63896;45.990;18.688;2023-07-13T06:59:07;6.13;;;1.10;;
75297;SDS011;63896;45.990;18.688;2023-07-13T07:02:10;3.42;;;0.57;;
75297;SDS011;63896;45.990;18.688;2023-07-13T07:05:14;4.07;;;0.90;;
75297;SDS011;63896;45.990;18.688;2023-07-13T07:08:16;2.42;;;1.10;;
75297;SDS011;63896;45.990;18.688;2023-07-13T07:11:21;5.40;;;1.00;;
75297;SDS011;63896;45.990;18.688;2023-07-13T07:14:26;5.30;;;0.70;;
75297;SDS011;63896;45.990;18.688;2023-07-13T07:17:29;2.13;;;0.82;;
75297;SDS011;63896;45.990;18.688;2023-07-13T07:20:32;2.45;;;0.68;;
75297;SDS011;63896;45.990;18.688;2023-07-13T07:23:35;2.55;;;1.00;;
75297;SDS011;63896;45.990;18.688;2023-07-13T07:26:38;4.07;;;1.00;;
75297;SDS011;63896;45.990;18.688;2023-07-13T07:29:47;2.10;;;0.67;;
75297;SDS011;63896;45.990;18.688;2023-07-13T07:33:09;4.53;;;0.90;;
75297;SDS011;63896;45.990;18.688;2023-07-13T07:36:12;3.38;;;0.90;;
75297;SDS011;63896;45.990;18.688;2023-07-13T07:39:18;2.70;;;0.70;;
75297;SDS011;63896;45.990;18.688;2023-07-13T07:42:21;2.70;;;0.90;;
75297;SDS011;63896;45.990;18.688;2023-07-13T07:45:24;1.67;;;0.87;;
75297;SDS011;63896;45.990;18.688;2023-07-13T07:48:30;2.35;;;0.70;;
75297;SDS011;63896;45.990;18.688;2023-07-13T07:51:33;2.90;;;0.70;;
75297;SDS011;63896;45.990;18.688;2023-07-13T07:54:35;4.85;;;0.73;;
75297;SDS011;63896;45.990;18.688;2023-07-13T07:57:41;3.90;;;1.05;;
75297;SDS011;63896;45.990;18.688;2023-07-13T08:00:47;4.23;;;1.00;;
75297;SDS011;63896;45.990;18.688;2023-07-13T08:03:52;2.08;;;0.88;;
75297;SDS011;63896;45.990;18.688;2023-07-13T08:06:58;3.25;;;0.85;;
75297;SDS011;63896;45.990;18.688;2023-07-13T08:10:15;3.35;;;1.10;;
75297;SDS011;63896;45.990;18.688;2023-07-13T08:13:49;3.13;;;0.82;;
75297;SDS011;63896;45.990;18.688;2023-07-13T08:16:56;3.43;;;0.50;;
75297;SDS011;63896;45.990;18.688;2023-07-13T08:19:59;3.95;;;0.70;;
75297;SDS011;63896;45.990;18.688;2023-07-13T08:23:02;3.00;;;0.60;;
75297;SDS011;63896;45.990;18.688;2023-07-13T08:26:05;1.38;;;0.70;;
75297;SDS011;63896;45.990;18.688;2023-07-13T08:29:08;2.65;;;0.70;;
75297;SDS011;63896;45.990;18.688;2023-07-13T08:32:11;3.20;;;0.73;;
75297;SDS011;63896;45.990;18.688;2023-07-13T08:35:14;3.72;;;0.82;;
75297;SDS011;63896;45.990;18.688;2023-07-13T08:38:18;1.20;;;0.80;;
75297;SDS011;63896;45.990;18.688;2023-07-13T08:41:21;1.65;;;0.80;;
75297;SDS011;63896;45.990;18.688;2023-07-13T08:44:27;2.72;;;0.68;;
75297;SDS011;63896;45.990;18.688;2023-07-13T08:47:44;2.20;;;0.60;;
75297;SDS011;63896;45.990;18.688;2023-07-13T08:50:58;3.10;;;0.80;;
75297;SDS011;63896;45.990;18.688;2023-07-13T08:54:05;2.17;;;0.57;;
75297;SDS011;63896;45.990;18.688;2023-07-13T08:57:27;1.55;;;0.50;;
75297;SDS011;63896;45.990;18.688;2023-07-13T09:00:48;2.38;;;0.85;;
75297;SDS011;63896;45.990;18.688;2023-07-13T09:04:11;1.43;;;0.80;;
75297;SDS011;63896;45.990;18.688;2023-07-13T09:10:49;1.70;;;0.60;;
75297;SDS011;63896;45.990;18.688;2023-07-13T09:14:04;3.20;;;0.70;;
75297;SDS011;63896;45.990;18.688;2023-07-13T09:17:25;2.08;;;0.70;;
75297;SDS011;63896;45.990;18.688;2023-07-13T09:20:38;3.43;;;0.80;;
75297;SDS011;63896;45.990;18.688;2023-07-13T09:23:56;1.40;;;0.80;;
75297;SDS011;63896;45.990;18.688;2023-07-13T09:27:27;1.63;;;0.63;;
75297;SDS011;63896;45.990;18.688;2023-07-13T09:30:46;4.43;;;0.98;;
75297;SDS011;63896;45.990;18.688;2023-07-13T09:34:04;2.25;;;0.73;;
75297;SDS011;63896;45.990;18.688;2023-07-13T09:37:12;3.30;;;0.80;;
75297;SDS011;63896;45.990;18.688;2023-07-13T09:40:26;1.50;;;0.82;;
75297;SDS011;63896;45.990;18.688;2023-07-13T09:44:00;5.88;;;0.90;;
75297;SDS011;63896;45.990;18.688;2023-07-13T09:47:18;4.22;;;0.90;;
75297;SDS011;63896;45.990;18.688;2023-07-13T09:50:25;2.83;;;0.90;;
75297;SDS011;63896;45.990;18.688;2023-07-13T09:53:29;2.33;;;0.50;;
75297;SDS011;63896;45.990;18.688;2023-07-13T09:56:33;2.40;;;0.90;;
75297;SDS011;63896;45.990;18.688;2023-07-13T09:59:40;2.55;;;0.70;;
75297;SDS011;63896;45.990;18.688;2023-07-13T10:02:46;2.95;;;1.00;;
75297;SDS011;63896;45.990;18.688;2023-07-13T10:06:20;2.35;;;0.88;;
75297;SDS011;63896;45.990;18.688;2023-07-13T10:09:28;3.83;;;1.07;;
75297;SDS011;63896;45.990;18.688;2023-07-13T10:12:35;5.88;;;1.38;;
75297;SDS011;63896;45.990;18.688;2023-07-13T10:15:39;3.17;;;0.90;;
75297;SDS011;63896;45.990;18.688;2023-07-13T10:18:51;4.70;;;1.08;;
75297;SDS011;63896;45.990;18.688;2023-07-13T10:22:02;3.15;;;1.05;;
75297;SDS011;63896;45.990;18.688;2023-07-13T10:25:14;2.80;;;1.20;;
75297;SDS011;63896;45.990;18.688;2023-07-13T10:31:31;2.45;;;1.00;;
75297;SDS011;63896;45.990;18.688;2023-07-13T10:34:34;2.28;;;0.90;;
75297;SDS011;63896;45.990;18.688;2023-07-13T10:41:02;3.80;;;0.80;;
75297;SDS011;63896;45.990;18.688;2023-07-13T10:44:12;4.25;;;0.70;;
75297;SDS011;63896;45.990;18.688;2023-07-13T10:47:23;2.08;;;0.90;;
75297;SDS011;63896;45.990;18.688;2023-07-13T10:50:28;3.53;;;0.90;;
75297;SDS011;63896;45.990;18.688;2023-07-13T10:53:35;2.80;;;0.93;;
75297;SDS011;63896;45.990;18.688;2023-07-13T10:56:45;2.77;;;1.07;;
75297;SDS011;63896;45.990;18.688;2023-07-13T11:00:14;3.75;;;1.02;;
75297;SDS011;63896;45.990;18.688;2023-07-13T11:03:20;3.47;;;1.00;;
75297;SDS011;63896;45.990;18.688;2023-07-13T11:12:49;4.23;;;1.00;;
75297;SDS011;63896;45.990;18.688;2023-07-13T11:15:56;1.10;;;1.00;;
75297;SDS011;63896;45.990;18.688;2023-07-13T11:25:21;4.13;;;1.05;;
75297;SDS011;63896;45.990;18.688;2023-07-13T11:28:30;4.33;;;1.10;;
75297;SDS011;63896;45.990;18.688;2023-07-13T11:31:35;4.57;;;1.30;;
75297;SDS011;63896;45.990;18.688;2023-07-13T11:34:38;5.68;;;0.80;;
75297;SDS011;63896;45.990;18.688;2023-07-13T11:37:41;1.98;;;1.00;;
75297;SDS011;63896;45.990;18.688;2023-07-13T11:40:47;4.15;;;1.05;;
75297;SDS011;63896;45.990;18.688;2023-07-13T11:44:08;3.67;;;1.17;;
75297;SDS011;63896;45.990;18.688;2023-07-13T11:47:19;4.97;;;1.30;;
75297;SDS011;63896;45.990;18.688;2023-07-13T11:50:24;6.43;;;1.25;;
75297;SDS011;63896;45.990;18.688;2023-07-13T11:53:28;2.28;;;1.17;;
75297;SDS011;63896;45.990;18.688;2023-07-13T11:56:37;3.10;;;1.23;;
75297;SDS011;63896;45.990;18.688;2023-07-13T11:59:40;4.47;;;0.80;;
75297;SDS011;63896;45.990;18.688;2023-07-13T12:02:44;1.45;;;0.82;;
75297;SDS011;63896;45.990;18.688;2023-07-13T12:05:58;4.95;;;0.85;;
75297;SDS011;63896;45.990;18.688;2023-07-13T12:09:09;4.03;;;1.00;;
75297;SDS011;63896;45.990;18.688;2023-07-13T12:12:22;3.67;;;1.05;;
75297;SDS011;63896;45.990;18.688;2023-07-13T12:15:28;5.87;;;1.30;;
75297;SDS011;63896;45.990;18.688;2023-07-13T12:18:39;3.30;;;1.45;;
75297;SDS011;63896;45.990;18.688;2023-07-13T12:21:42;5.18;;;1.00;;
75297;SDS011;63896;45.990;18.688;2023-07-13T12:24:47;3.83;;;1.30;;
75297;SDS011;63896;45.990;18.688;2023-07-13T12:27:51;2.63;;;0.70;;
75297;SDS011;63896;45.990;18.688;2023-07-13T12:30:54;5.37;;;1.30;;
75297;SDS011;63896;45.990;18.688;2023-07-13T12:34:03;3.15;;;1.15;;
75297;SDS011;63896;45.990;18.688;2023-07-13T12:37:14;5.20;;;1.33;;
75297;SDS011;63896;45.990;18.688;2023-07-13T12:40:19;5.35;;;1.30;;
75297;SDS011;63896;45.990;18.688;2023-07-13T12:43:25;3.05;;;1.00;;
75297;SDS011;63896;45.990;18.688;2023-07-13T12:46:29;5.50;;;1.30;;
75297;SDS011;63896;45.990;18.688;2023-07-13T12:49:33;7.35;;;1.42;;
75297;SDS011;63896;45.990;18.688;2023-07-13T12:52:37;2.63;;;1.20;;
75297;SDS011;63896;45.990;18.688;2023-07-13T12:55:50;2.40;;;1.40;;
75297;SDS011;63896;45.990;18.688;2023-07-13T12:58:58;4.28;;;0.95;;
75297;SDS011;63896;45.990;18.688;2023-07-13T13:02:08;5.37;;;1.30;;
75297;SDS011;63896;45.990;18.688;2023-07-13T13:05:25;2.95;;;1.10;;
75297;SDS011;63896;45.990;18.688;2023-07-13T13:08:29;4.40;;;1.00;;
75297;SDS011;63896;45.990;18.688;2023-07-13T13:11:35;7.72;;;1.63;;
75297;SDS011;63896;45.990;18.688;2023-07-13T13:14:38;4.30;;;1.10;;
75297;SDS011;63896;45.990;18.688;2023-07-13T13:17:42;3.93;;;1.50;;
75297;SDS011;63896;45.990;18.688;2023-07-13T13:20:45;4.05;;;1.65;;
75297;SDS011;63896;45.990;18.688;2023-07-13T13:23:48;4.00;;;0.95;;
75297;SDS011;63896;45.990;18.688;2023-07-13T13:26:53;4.22;;;1.00;;
75297;SDS011;63896;45.990;18.688;2023-07-13T13:29:59;2.03;;;1.15;;
75297;SDS011;63896;45.990;18.688;2023-07-13T13:33:05;3.27;;;1.10;;
75297;SDS011;63896;45.990;18.688;2023-07-13T13:36:15;6.28;;;1.40;;
75297;SDS011;63896;45.990;18.688;2023-07-13T13:39:21;2.63;;;1.00;;
75297;SDS011;63896;45.990;18.688;2023-07-13T13:42:26;5.78;;;1.27;;
75297;SDS011;63896;45.990;18.688;2023-07-13T13:45:31;4.78;;;1.25;;
75297;SDS011;63896;45.990;18.688;2023-07-13T13:48:36;2.67;;;1.10;;
75297;SDS011;63896;45.990;18.688;2023-07-13T13:51:43;4.85;;;1.10;;
75297;SDS011;63896;45.990;18.688;2023-07-13T13:54:47;5.05;;;1.63;;
75297;SDS011;63896;45.990;18.688;2023-07-13T13:57:49;4.85;;;1.20;;
75297;SDS011;63896;45.990;18.688;2023-07-13T14:00:52;2.47;;;1.27;;
75297;SDS011;63896;45.990;18.688;2023-07-13T14:03:55;3.53;;;1.23;;
75297;SDS011;63896;45.990;18.688;2023-07-13T14:06:58;6.97;;;1.52;;
75297;SDS011;63896;45.990;18.688;2023-07-13T14:10:01;3.95;;;1.33;;
75297;SDS011;63896;45.990;18.688;2023-07-13T14:13:04;2.78;;;1.27;;
75297;SDS011;63896;45.990;18.688;2023-07-13T14:16:12;3.47;;;1.60;;
75297;SDS011;63896;45.990;18.688;2023-07-13T14:19:20;2.10;;;1.30;;
75297;SDS011;63896;45.990;18.688;2023-07-13T14:22:26;3.50;;;1.50;;
75297;SDS011;63896;45.990;18.688;2023-07-13T14:25:29;4.57;;;1.38;;
75297;SDS011;63896;45.990;18.688;2023-07-13T14:28:35;3.28;;;1.20;;
75297;SDS011;63896;45.990;18.688;2023-07-13T14:31:44;2.08;;;1.15;;
75297;SDS011;63896;45.990;18.688;2023-07-13T14:34:47;4.87;;;1.20;;
75297;SDS011;63896;45.990;18.688;2023-07-13T14:37:50;5.35;;;1.50;;
75297;SDS011;63896;45.990;18.688;2023-07-13T14:40:53;3.85;;;1.35;;
75297;SDS011;63896;45.990;18.688;2023-07-13T14:43:56;3.38;;;1.83;;
75297;SDS011;63896;45.990;18.688;2023-07-13T14:46:59;3.28;;;1.60;;
75297;SDS011;63896;45.990;18.688;2023-07-13T14:50:11;3.80;;;1.50;;
75297;SDS011;63896;45.990;18.688;2023-07-13T14:53:19;5.18;;;1.15;;
75297;SDS011;63896;45.990;18.688;2023-07-13T14:56:22;2.28;;;1.00;;
75297;SDS011;63896;45.990;18.688;2023-07-13T14:59:25;3.58;;;1.35;;
75297;SDS011;63896;45.990;18.688;2023-07-13T15:02:30;4.70;;;1.65;;
75297;SDS011;63896;45.990;18.688;2023-07-13T15:05:36;6.60;;;1.13;;
75297;SDS011;63896;45.990;18.688;2023-07-13T15:08:39;4.18;;;1.30;;
75297;SDS011;63896;45.990;18.688;2023-07-13T15:11:50;6.75;;;1.30;;
75297;SDS011;63896;45.990;18.688;2023-07-13T15:14:52;2.88;;;1.10;;
75297;SDS011;63896;45.990;18.688;2023-07-13T15:17:57;5.40;;;1.38;;
75297;SDS011;63896;45.990;18.688;2023-07-13T15:20:59;3.00;;;1.23;;
75297;SDS011;63896;45.990;18.688;2023-07-13T15:24:05;1.63;;;1.02;;
75297;SDS011;63896;45.990;18.688;2023-07-13T15:27:11;7.07;;;1.33;;
75297;SDS011;63896;45.990;18.688;2023-07-13T15:30:14;4.82;;;1.23;;
75297;SDS011;63896;45.990;18.688;2023-07-13T15:33:22;3.42;;;1.30;;
75297;SDS011;63896;45.990;18.688;2023-07-13T15:36:27;5.03;;;1.17;;
75297;SDS011;63896;45.990;18.688;2023-07-13T15:39:34;5.38;;;1.35;;
75297;SDS011;63896;45.990;18.688;2023-07-13T15:42:43;4.43;;;1.42;;
75297;SDS011;63896;45.990;18.688;2023-07-13T15:45:47;3.45;;;1.00;;
75297;SDS011;63896;45.990;18.688;2023-07-13T15:48:51;3.10;;;1.10;;
75297;SDS011;63896;45.990;18.688;2023-07-13T15:51:56;3.23;;;1.50;;
75297;SDS011;63896;45.990;18.688;2023-07-13T15:55:00;1.92;;;1.10;;
75297;SDS011;63896;45.990;18.688;2023-07-13T15:58:03;3.45;;;0.95;;
75297;SDS011;63896;45.990;18.688;2023-07-13T16:01:08;2.20;;;1.00;;
75297;SDS011;63896;45.990;18.688;2023-07-13T16:04:13;6.88;;;1.10;;
75297;SDS011;63896;45.990;18.688;2023-07-13T16:07:16;2.37;;;1.00;;
75297;SDS011;63896;45.990;18.688;2023-07-13T16:10:42;4.00;;;1.00;;
75297;SDS011;63896;45.990;18.688;2023-07-13T16:13:44;1.83;;;0.70;;
75297;SDS011;63896;45.990;18.688;2023-07-13T16:16:57;2.17;;;0.82;;
75297;SDS011;63896;45.990;18.688;2023-07-13T16:20:02;2.75;;;1.08;;
75297;SDS011;63896;45.990;18.688;2023-07-13T16:23:08;1.60;;;0.97;;
75297;SDS011;63896;45.990;18.688;2023-07-13T16:26:20;5.07;;;0.70;;
75297;SDS011;63896;45.990;18.688;2023-07-13T16:33:05;3.97;;;1.00;;
75297;SDS011;63896;45.990;18.688;2023-07-13T16:36:11;2.85;;;1.13;;
75297;SDS011;63896;45.990;18.688;2023-07-13T16:39:15;3.13;;;1.20;;
75297;SDS011;63896;45.990;18.688;2023-07-13T16:42:18;3.38;;;1.30;;
75297;SDS011;63896;45.990;18.688;2023-07-13T16:45:22;5.43;;;1.55;;
75297;SDS011;63896;45.990;18.688;2023-07-13T16:48:33;7.47;;;1.40;;
75297;SDS011;63896;45.990;18.688;2023-07-13T16:51:36;3.25;;;1.13;;
75297;SDS011;63896;45.990;18.688;2023-07-13T16:54:39;2.40;;;1.40;;
75297;SDS011;63896;45.990;18.688;2023-07-13T16:57:43;3.13;;;1.25;;
75297;SDS011;63896;45.990;18.688;2023-07-13T17:00:47;1.85;;;1.15;;
75297;SDS011;63896;45.990;18.688;2023-07-13T17:03:54;2.83;;;1.00;;
75297;SDS011;63896;45.990;18.688;2023-07-13T17:07:02;1.88;;;0.98;;
75297;SDS011;63896;45.990;18.688;2023-07-13T17:10:10;3.13;;;1.07;;
75297;SDS011;63896;45.990;18.688;2023-07-13T17:13:22;1.45;;;0.90;;
75297;SDS011;63896;45.990;18.688;2023-07-13T17:16:27;1.88;;;0.80;;
75297;SDS011;63896;45.990;18.688;2023-07-13T17:19:30;3.22;;;0.70;;
75297;SDS011;63896;45.990;18.688;2023-07-13T17:22:35;1.25;;;0.65;;
75297;SDS011;63896;45.990;18.688;2023-07-13T17:25:38;0.97;;;0.80;;
75297;SDS011;63896;45.990;18.688;2023-07-13T17:28:42;2.80;;;0.75;;
75297;SDS011;63896;45.990;18.688;2023-07-13T17:31:45;3.90;;;0.70;;
75297;SDS011;63896;45.990;18.688;2023-07-13T17:34:50;2.55;;;0.60;;
75297;SDS011;63896;45.990;18.688;2023-07-13T17:37:53;1.30;;;0.80;;
75297;SDS011;63896;45.990;18.688;2023-07-13T17:40:59;3.90;;;0.70;;
75297;SDS011;63896;45.990;18.688;2023-07-13T17:44:03;3.08;;;1.33;;
75297;SDS011;63896;45.990;18.688;2023-07-13T17:47:15;1.42;;;0.73;;
75297;SDS011;63896;45.990;18.688;2023-07-13T17:50:27;1.80;;;0.98;;
75297;SDS011;63896;45.990;18.688;2023-07-13T17:53:38;3.20;;;0.95;;
75297;SDS011;63896;45.990;18.688;2023-07-13T17:56:45;4.50;;;0.70;;
75297;SDS011;63896;45.990;18.688;2023-07-13T17:59:48;2.00;;;0.93;;
75297;SDS011;63896;45.990;18.688;2023-07-13T18:02:51;4.43;;;0.80;;
75297;SDS011;63896;45.990;18.688;2023-07-13T18:05:55;2.80;;;0.80;;
75297;SDS011;63896;45.990;18.688;2023-07-13T18:08:58;4.00;;;1.00;;
75297;SDS011;63896;45.990;18.688;2023-07-13T18:12:09;2.93;;;1.00;;
75297;SDS011;63896;45.990;18.688;2023-07-13T18:15:12;3.80;;;1.08;;
75297;SDS011;63896;45.990;18.688;2023-07-13T18:18:16;1.80;;;0.93;;
75297;SDS011;63896;45.990;18.688;2023-07-13T18:21:20;2.35;;;0.80;;
75297;SDS011;63896;45.990;18.688;2023-07-13T18:24:23;4.07;;;0.90;;
75297;SDS011;63896;45.990;18.688;2023-07-13T18:27:26;3.03;;;1.10;;
75297;SDS011;63896;45.990;18.688;2023-07-13T18:30:29;2.58;;;0.90;;
75297;SDS011;63896;45.990;18.688;2023-07-13T18:33:32;4.63;;;0.93;;
75297;SDS011;63896;45.990;18.688;2023-07-13T18:36:36;2.50;;;0.95;;
75297;SDS011;63896;45.990;18.688;2023-07-13T18:39:41;3.33;;;1.00;;
75297;SDS011;63896;45.990;18.688;2023-07-13T18:42:44;2.17;;;1.10;;
75297;SDS011;63896;45.990;18.688;2023-07-13T18:45:54;6.53;;;2.80;;
75297;SDS011;63896;45.990;18.688;2023-07-13T18:49:01;2.30;;;1.40;;
75297;SDS011;63896;45.990;18.688;2023-07-13T18:52:07;3.92;;;1.75;;
75297;SDS011;63896;45.990;18.688;2023-07-13T18:55:21;2.58;;;1.10;;